Friday, December 19, 2014, 9:16 AM EST

KFYJ, West Point, Middle Peninsula Regional Airport

Location: Shacklefords, VA, United States Lat: 37.521
Local Time: 9:16 AM EST (14:16 GMT) Lon: -76.764
Time Zone: US/Eastern Elev: 22 ft

Show me the last for .
Show Decoded

2014-12-19 08:55 METAR KFYJ 191355Z AUTO 33003KT 10SM CLR 03/M03 A3019 RMK AO2 T00301031 =
2014-12-19 08:35 METAR KFYJ 191335Z AUTO 33004KT 10SM CLR 02/M03 A3019 RMK AO2 T00221032 =
2014-12-19 08:15 METAR KFYJ 191315Z AUTO 00000KT 10SM CLR 01/M03 A3018 RMK AO2 T00111030 =
2014-12-19 07:55 METAR KFYJ 191255Z AUTO 00000KT 10SM CLR 00/M03 A3017 RMK AO2 T00001028 =
2014-12-19 07:35 METAR KFYJ 191235Z AUTO 00000KT 10SM CLR 00/M03 A3017 RMK AO2 T10041032 =
2014-12-19 07:15 METAR KFYJ 191215Z AUTO 00000KT 10SM CLR 00/M03 A3018 RMK AO2 T00001035 =
2014-12-19 06:55 METAR KFYJ 191155Z AUTO 00000KT 10SM CLR 00/M03 A3017 RMK AO2 T00001028 10025
                 21009 =
2014-12-19 06:35 METAR KFYJ 191135Z AUTO 00000KT 10SM SCT090 00/M03 A3016 RMK AO2 T00001027 =
2014-12-19 06:15 METAR KFYJ 191115Z AUTO 00000KT 10SM OVC090 00/M02 A3015 RMK AO2 T00011024 =
2014-12-19 05:55 METAR KFYJ 191055Z AUTO 00000KT 10SM OVC090 00/M02 A3014 RMK AO2 T00001022 =
2014-12-19 05:35 METAR KFYJ 191035Z AUTO 00000KT 10SM BKN090 M01/M04 A3014 RMK AO2 T10091037 =
2014-12-19 05:15 METAR KFYJ 191015Z AUTO 00000KT 10SM SCT120 00/M03 A3013 RMK AO2 T00021029 =
2014-12-19 04:55 METAR KFYJ 190955Z AUTO 00000KT 10SM BKN120 01/M02 A3013 RMK AO2 T00051023 =
2014-12-19 04:35 METAR KFYJ 190935Z AUTO 00000KT 10SM OVC110 00/M02 A3013 RMK AO2 T00021025 =
2014-12-19 04:15 METAR KFYJ 190915Z AUTO 00000KT 10SM BKN120 00/M03 A3013 RMK AO2 T00001032 =
2014-12-19 03:55 METAR KFYJ 190855Z AUTO 00000KT 10SM SCT120 01/M04 A3013 RMK AO2 T00101036 =
2014-12-19 03:35 METAR KFYJ 190835Z AUTO 00000KT 10SM BKN120 02/M03 A3014 RMK AO2 T00161035 =
2014-12-19 03:15 METAR KFYJ 190815Z AUTO 00000KT 10SM OVC110 02/M04 A3013 RMK AO2 T00191036 =
2014-12-19 02:55 METAR KFYJ 190755Z AUTO 00000KT 10SM OVC110 02/M03 A3014 RMK AO2 T00161033 =
2014-12-19 02:35 METAR KFYJ 190735Z AUTO 00000KT 10SM BKN110 02/M04 A3015 RMK AO2 T00201036 =
2014-12-19 02:15 METAR KFYJ 190715Z AUTO 00000KT 10SM OVC100 02/M03 A3015 RMK AO2 T00211034 =
2014-12-19 01:55 METAR KFYJ 190655Z AUTO 00000KT 10SM OVC100 02/M02 A3014 RMK AO2 T00191019 =
2014-12-19 01:35 METAR KFYJ 190635Z AUTO 00000KT 10SM OVC100 01/M01 A3014 RMK AO2 T00071013 =
2014-12-19 01:15 METAR KFYJ 190615Z AUTO 00000KT 10SM OVC100 01/M02 A3014 RMK AO2 T00061019 =
2014-12-19 00:55 METAR KFYJ 190555Z AUTO 00000KT 10SM OVC100 01/M02 A3014 RMK AO2 T00091020 10030
                 20002 400861006 =
2014-12-19 00:15 METAR KFYJ 190515Z AUTO 00000KT 10SM BKN100 01/M03 A3014 RMK AO2 T00091029 =
2014-12-18 23:55 METAR KFYJ 190455Z AUTO 29003KT 10SM OVC100 01/M02 A3014 RMK AO2 T00051021 =
2014-12-18 23:35 METAR KFYJ 190435Z AUTO 00000KT 10SM OVC100 01/M02 A3013 RMK AO2 T00051025 =
2014-12-18 23:15 METAR KFYJ 190415Z AUTO 00000KT 10SM SCT100 01/M02 A3013 RMK AO2 T00121025 =
2014-12-18 22:55 METAR KFYJ 190355Z AUTO 00000KT 10SM SCT100 02/M02 A3012 RMK AO2 T00201022 =
2014-12-18 22:15 METAR KFYJ 190315Z AUTO 00000KT 10SM BKN110 02/M01 A3012 RMK AO2 T00201015 =
2014-12-18 21:55 METAR KFYJ 190255Z AUTO 00000KT 10SM BKN110 02/M02 A3013 RMK AO2 T00171016 =
2014-12-18 21:35 METAR KFYJ 190235Z AUTO 00000KT 10SM BKN110 02/M02 A3013 RMK AO2 T00171020 =
2014-12-18 21:15 METAR KFYJ 190215Z AUTO 00000KT 10SM OVC110 02/M02 A3013 RMK AO2 T00151021 =
2014-12-18 20:55 METAR KFYJ 190155Z AUTO 00000KT 10SM BKN120 02/M03 A3013 RMK AO2 T00161027 =
2014-12-18 20:35 METAR KFYJ 190135Z AUTO 00000KT 10SM OVC120 02/M03 A3014 RMK AO2 T00211030 =
2014-12-18 20:15 METAR KFYJ 190115Z AUTO 00000KT 10SM OVC120 03/M03 A3014 RMK AO2 T00251028 =
2014-12-18 19:55 METAR KFYJ 190055Z AUTO 00000KT 10SM OVC120 02/M03 A3014 RMK AO2 T00231028 =
2014-12-18 19:35 METAR KFYJ 190035Z AUTO 00000KT 10SM SCT120 02/M04 A3014 RMK AO2 T00151036 =
2014-12-18 19:15 METAR KFYJ 190015Z AUTO 00000KT 10SM CLR 02/M04 A3013 RMK AO2 T00211040 =
2014-12-18 18:55 METAR KFYJ 182355Z AUTO 00000KT 10SM CLR 03/M04 A3013 RMK AO2 T00311041 10086
                 20031 =
2014-12-18 18:35 METAR KFYJ 182335Z AUTO 00000KT 10SM CLR 04/M04 A3012 RMK AO2 T00351044 =
2014-12-18 18:15 METAR KFYJ 182315Z AUTO 00000KT 10SM CLR 04/M04 A3013 RMK AO2 T00381041 =
2014-12-18 17:55 METAR KFYJ 182255Z AUTO 33003KT 10SM CLR 04/M04 A3012 RMK AO2 T00401040 =
2014-12-18 17:35 METAR KFYJ 182235Z AUTO 33003KT 10SM CLR 05/M04 A3011 RMK AO2 T00461042 =
2014-12-18 17:15 METAR KFYJ 182215Z AUTO 00000KT 10SM CLR 06/M05 A3011 RMK AO2 T00561048 =
2014-12-18 16:55 METAR KFYJ 182155Z AUTO 29004KT 10SM CLR 06/M05 A3011 RMK AO2 T00601050 =
2014-12-18 16:35 METAR KFYJ 182135Z AUTO 28005KT 10SM CLR 07/M05 A3011 RMK AO2 T00651051 =
2014-12-18 16:15 METAR KFYJ 182115Z AUTO 27005KT 10SM CLR 07/M05 A3011 RMK AO2 T00681051 =
2014-12-18 15:55 METAR KFYJ 182055Z AUTO 27006KT 10SM CLR 07/M05 A3011 RMK AO2 T00721054 =
2014-12-18 15:35 METAR KFYJ 182035Z AUTO 27006KT 10SM CLR 08/M06 A3011 RMK AO2 T00771060 =
2014-12-18 15:15 METAR KFYJ 182015Z AUTO 27004KT 10SM CLR 08/M06 A3011 RMK AO2 T00801060 =
2014-12-18 14:55 METAR KFYJ 181955Z AUTO 27006KT 10SM CLR 08/M06 A3011 RMK AO2 T00821065 =
2014-12-18 14:35 METAR KFYJ 181935Z AUTO 28006KT 10SM CLR 08/M07 A3011 RMK AO2 T00791070 =
2014-12-18 14:15 METAR KFYJ 181915Z AUTO 27007KT 10SM CLR 08/M07 A3011 RMK AO2 T00831071 =
2014-12-18 13:55 METAR KFYJ 181855Z AUTO 27006KT 240V310 10SM CLR 08/M07 A3011 RMK AO2 T00841075
                 =
2014-12-18 13:35 METAR KFYJ 181835Z AUTO 28009KT 10SM CLR 08/M08 A3012 RMK AO2 T00801078 =
2014-12-18 13:15 METAR KFYJ 181815Z AUTO 30007KT 10SM CLR 08/M07 A3012 RMK AO2 T00791067 =
2014-12-18 12:55 METAR KFYJ 181755Z AUTO 30009KT 10SM CLR 08/M07 A3013 RMK AO2 T00821073 10086
                 20006 =
2014-12-18 12:35 METAR KFYJ 181735Z AUTO 30009KT 10SM CLR 08/M07 A3014 RMK AO2 T00811070 =
2014-12-18 12:15 METAR KFYJ 181715Z AUTO 33009KT 10SM CLR 08/M07 A3015 RMK AO2 T00821071 =
2014-12-18 11:55 METAR KFYJ 181655Z AUTO 33006KT 10SM CLR 08/M07 A3016 RMK AO2 T00771069 =
2014-12-18 11:35 METAR KFYJ 181635Z AUTO 31008KT 270V360 10SM CLR 08/M06 A3016 RMK AO2 T00751064
                 =
2014-12-18 11:15 METAR KFYJ 181615Z AUTO 30008KT 270V330 10SM CLR 07/M06 A3017 RMK AO2 T00711063
                 =
2014-12-18 10:55 METAR KFYJ 181555Z AUTO 35007KT 10SM CLR 07/M06 A3019 RMK AO2 T00681059 =
2014-12-18 10:35 METAR KFYJ 181535Z AUTO 31007KT 10SM CLR 06/M05 A3019 RMK AO2 T00641054 =
2014-12-18 10:15 METAR KFYJ 181515Z AUTO 35006KT 10SM CLR 06/M05 A3020 RMK AO2 T00561053 =
2014-12-18 09:55 METAR KFYJ 181455Z AUTO 35006KT 10SM CLR 05/M05 A3020 RMK AO2 T00511047 =
2014-12-18 09:35 METAR KFYJ 181435Z AUTO 35004KT 10SM CLR 05/M04 A3020 RMK AO2 T00451040 =

Support USWX by starting your Amazon purchase here.